Historyczne dane pomiarowe

Dodano dane terminowe – wersja testowa.

Dane z okresu 1951-2019

Wersja bazy: 1.34 [2019-03-16, lista zmian], aktualizacja planowana na 2019-04-15

Dane meteo z obszaru Polski uzyskane na podstawie danych udostępnionych przez Instytut Meteorologii i Gospodarki Wodnej – Państwowy Instytut Badawczy.

 

Wybierz Datę:    

       

TemperaturaWilgotnośćZachmurzenieWiatrCiśnienieWidzialnośćZjawiska
 Data    tng td wb rh cc ccl cl cm ch dir g1 g2 mslp ppp      
1999-06-30 00:00:00 17.0--- 10.5 13.366wxwxwx2wx--1019.1 996.3 0.0---wx
1999-06-30 01:00:00 16.9--- 10.6 13.366wxwxwx2wx--1018.9 996.1----wx
1999-06-30 02:00:00 16.4--- 10.8 13.270wxwxwx2wx--1018.8 995.9----wx
1999-06-30 03:00:00 15.7--- 11.0 13.074wxwxwx1wx--1018.8 995.9----wx
1999-06-30 04:00:00 15.9--- 11.0 13.173wxwxwxwx2wx--1018.6 995.7----wx
1999-06-30 05:00:00 16.1--- 11.6 13.575wxwxwxwx1wx--1018.5 995.6----wx
1999-06-30 06:00:00 17.8--- 12.4 14.671wxwxwxwx2wx--1018.5 995.8 0.0---wx
1999-06-30 07:00:00 18.5--- 13.0 15.270wxwxwxwx1wx--1018.6 995.9----wx
1999-06-30 08:00:00 21.6--- 15.3 17.667wxwxwxwx1wx--1018.3 995.9----wx
1999-06-30 09:00:00 22.9--- 14.1 17.458wxwxwxwx1wx--1018.0 995.7----wx
1999-06-30 10:00:00 24.6--- 13.3 17.649wxwxwxwx3wx--1017.9 995.7----wx
1999-06-30 11:00:00 24.3--- 12.9 17.349wxwxwx1wx--1017.8 995.6----wx
1999-06-30 12:00:00 24.7--- 13.2 17.649wxwxwxwx1wx--1017.3 995.1 0.0---wx
1999-06-30 13:00:00 25.7--- 12.9 17.845wxwxwxwx2wx--1016.5 994.4----wx
1999-06-30 14:00:00 26.6--- 12.7 18.042wxwxwxwx2wx--1016.1 994.1----wx
1999-06-30 15:00:00 25.6--- 13.8 18.248wxwxwxwx2wx--1015.9 993.8----wx
1999-06-30 16:00:00 25.7--- 14.5 18.650wxwxwxwxwx2wx--1015.9 993.8----wx
1999-06-30 17:00:00 25.4--- 14.5 18.551wxwxwxwxwx2wx--1015.5 993.4----wx
1999-06-30 18:00:00 24.4--- 13.8 17.852wxwxwxwxwx2wx--1015.9 993.7 0.0---wx
1999-06-30 19:00:00 23.3--- 14.7 17.959wxwxwxwxwx1wx--1016.2 993.9----wx
1999-06-30 20:00:00 22.6--- 15.2 17.963wxwxwxwx2wx--1016.9 994.6----wx
1999-06-30 21:00:00 21.5--- 15.0 17.466wxwxwxwxwx1wx--1017.2 994.8----wx
1999-06-30 22:00:00 20.3--- 15.4 17.273wxwxwxwxwx2wx--1017.5 995.0----wx
1999-06-30 23:00:00 18.3--- 15.6 16.684wxwxwxwxwx2wx--1017.8 995.1----wx

 

Źródłem pochodzenia danych jest Instytut Meteorologii i Gospodarki Wodnej – Państwowy Instytut Badawczy. Dane Instytutu Meteorologii i Gospodarki Wodnej – Państwowego Instytutu Badawczego zostały przetworzone.

Dane źródłowe można odnaleźć na stronie https://dane.imgw.pl